Time;durP1;ratioP1;P1;durP2;ratioP2;P2;SDS_P1;SDS_P2;PMS_P1;PMS_P2;Temp;Humidity;BMP_temperature;BMP_pressure;BME280_temperature;BME280_humidity;BME280_pressure;Samples;Min_cycle;Max_cycle;Signal;HPM_P1;HPM_P2
2023/05/24 00:02:06;;;;;;;2.70;2.30;;;12.70;99.90;;;;;;5009782;28;20484;-71
2023/05/24 00:04:33;;;;;;;2.60;2.40;;;12.70;99.90;;;;;;5009887;28;20469;-71
2023/05/24 00:07:02;;;;;;;3.37;3.07;;;12.70;99.90;;;;;;5010148;28;20489;-71
2023/05/24 00:09:29;;;;;;;3.47;2.80;;;12.70;99.90;;;;;;5009945;28;20491;-71
2023/05/24 00:11:56;;;;;;;6.60;2.87;;;12.70;99.90;;;;;;5029612;28;20487;-71
2023/05/24 00:14:24;;;;;;;3.83;3.07;;;12.70;99.90;;;;;;5030026;28;20463;-71
2023/05/24 00:16:51;;;;;;;4.20;3.00;;;12.60;99.90;;;;;;5001303;28;20857;-70
2023/05/24 00:19:17;;;;;;;4.30;2.90;;;12.60;99.90;;;;;;5009725;28;20464;-70
2023/05/24 00:21:44;;;;;;;2.47;2.27;;;12.60;99.90;;;;;;5009176;28;20480;-70
2023/05/24 00:24:11;;;;;;;4.30;2.83;;;12.60;99.90;;;;;;5010235;28;20492;-70
2023/05/24 00:26:38;;;;;;;2.90;2.57;;;12.60;99.90;;;;;;5010395;28;20850;-70
2023/05/24 00:29:05;;;;;;;2.90;2.20;;;12.50;99.90;;;;;;5009930;28;20468;-70
2023/05/24 00:31:33;;;;;;;3.13;2.83;;;12.50;99.90;;;;;;5010397;28;20899;-70
2023/05/24 00:33:59;;;;;;;4.90;2.80;;;12.50;99.90;;;;;;5010438;28;20465;-70
2023/05/24 00:36:26;;;;;;;4.60;3.33;;;12.50;99.90;;;;;;5010221;28;20476;-70
2023/05/24 00:38:53;;;;;;;3.50;2.80;;;12.40;99.90;;;;;;5009879;28;20835;-70
2023/05/24 00:41:20;;;;;;;5.40;2.60;;;12.40;99.90;;;;;;5010604;28;20492;-70
2023/05/24 00:43:47;;;;;;;3.22;2.90;;;12.40;99.90;;;;;;5010331;28;20540;-70
2023/05/24 00:46:17;;;;;;;3.60;2.22;;;12.40;99.90;;;;;;5010179;28;20225;-70
2023/05/24 00:48:45;;;;;;;3.60;3.30;;;12.40;99.90;;;;;;5009255;28;20210;-70
2023/05/24 00:51:13;;;;;;;3.30;2.83;;;12.30;99.90;;;;;;5010319;28;20488;-70
2023/05/24 00:53:41;;;;;;;2.60;2.40;;;12.30;99.90;;;;;;5009991;28;20202;-70
2023/05/24 00:56:09;;;;;;;3.30;3.00;;;12.30;99.90;;;;;;5014177;28;20465;-70
2023/05/24 00:58:35;;;;;;;3.93;3.00;;;12.30;99.90;;;;;;5009652;28;20261;-70
2023/05/24 01:01:03;;;;;;;2.93;2.50;;;12.30;99.90;;;;;;5010158;28;20461;-70
2023/05/24 01:03:30;;;;;;;3.47;2.60;;;12.30;99.90;;;;;;5013433;28;20465;-70
2023/05/24 01:06:00;;;;;;;4.30;2.90;;;12.20;99.90;;;;;;5014063;28;20894;-70
2023/05/24 01:08:43;;;;;;;3.80;2.60;;;12.30;99.90;;;;;;5013606;28;21023;-70
2023/05/24 01:11:21;;;;;;;4.63;3.03;;;12.30;99.90;;;;;;5008304;28;20210;-70
2023/05/24 01:13:58;;;;;;;3.30;3.00;;;12.20;99.90;;;;;;5014215;28;20496;-70
2023/05/24 01:16:32;;;;;;;3.23;2.63;;;12.30;99.90;;;;;;5014314;28;20465;-70
2023/05/24 01:19:05;;;;;;;3.33;2.90;;;12.30;99.90;;;;;;5013479;28;20464;-70
2023/05/24 01:21:47;;;;;;;3.93;2.63;;;12.30;99.90;;;;;;5013979;28;20461;-72
2023/05/24 01:24:25;;;;;;;2.97;2.67;;;12.20;99.90;;;;;;5014283;28;20522;-70
2023/05/24 01:27:05;;;;;;;2.83;2.57;;;12.20;99.90;;;;;;5013292;28;20484;-70
2023/05/24 01:29:33;;;;;;;3.57;2.67;;;12.20;99.90;;;;;;5012917;28;20465;-70
2023/05/24 01:32:00;;;;;;;3.27;2.90;;;12.20;99.90;;;;;;5013422;28;20879;-70
2023/05/24 01:34:27;;;;;;;3.27;2.50;;;12.30;99.90;;;;;;5013610;28;20971;-70
2023/05/24 01:36:54;;;;;;;2.77;2.57;;;12.20;99.90;;;;;;5013319;28;20484;-70
2023/05/24 01:39:22;;;;;;;4.50;3.23;;;12.20;99.90;;;;;;5013249;28;20511;-70
2023/05/24 01:41:57;;;;;;;4.38;3.13;;;12.20;99.90;;;;;;5013190;28;20868;-70
2023/05/24 01:44:30;;;;;;;4.13;2.97;;;12.20;99.90;;;;;;5013195;28;20197;-70
2023/05/24 01:47:03;;;;;;;3.67;3.10;;;12.20;99.90;;;;;;5012828;28;20500;-70
2023/05/24 01:49:34;;;;;;;4.40;3.30;;;12.10;99.90;;;;;;5012804;28;20205;-70
2023/05/24 01:52:04;;;;;;;4.13;3.05;;;12.10;99.90;;;;;;5012995;28;20492;-70
2023/05/24 01:54:33;;;;;;;5.15;2.95;;;12.10;99.90;;;;;;5013137;28;20248;-70
2023/05/24 01:57:04;;;;;;;4.68;2.90;;;12.00;99.90;;;;;;5013263;28;20313;-70
2023/05/24 01:59:33;;;;;;;3.03;2.72;;;12.00;99.90;;;;;;5012583;28;20375;-70
2023/05/24 02:02:00;;;;;;;4.63;2.92;;;12.00;99.90;;;;;;5012978;28;20198;-70
2023/05/24 02:04:27;;;;;;;5.47;3.27;;;12.00;99.90;;;;;;5013005;28;20199;-70
2023/05/24 02:06:54;;;;;;;2.88;2.65;;;11.90;99.90;;;;;;5012689;28;20484;-71
2023/05/24 02:09:21;;;;;;;4.70;3.47;;;11.90;99.90;;;;;;5012386;28;20210;-71
2023/05/24 02:11:47;;;;;;;5.20;2.55;;;11.90;99.90;;;;;;5022975;28;20645;-72
2023/05/24 02:14:16;;;;;;;3.42;2.72;;;11.90;99.90;;;;;;5032608;28;20197;-71
2023/05/24 02:16:45;;;;;;;4.07;2.80;;;11.90;99.90;;;;;;5032305;28;20245;-71
2023/05/24 02:19:12;;;;;;;5.70;2.97;;;11.90;99.90;;;;;;5032125;28;20198;-71
2023/05/24 02:21:39;;;;;;;3.58;3.20;;;11.90;99.90;;;;;;5032307;28;20460;-71
2023/05/24 02:24:06;;;;;;;6.47;2.97;;;11.90;99.90;;;;;;5032507;28;20231;-71
2023/05/24 02:26:33;;;;;;;3.08;2.60;;;11.90;99.90;;;;;;5032134;28;20495;-71
2023/05/24 02:29:00;;;;;;;4.00;3.20;;;11.80;99.90;;;;;;5031655;28;20198;-71
2023/05/24 02:31:27;;;;;;;3.80;2.47;;;11.80;99.90;;;;;;5032334;28;20217;-71
2023/05/24 02:33:55;;;;;;;4.45;3.22;;;11.80;99.90;;;;;;5031974;28;20202;-71
2023/05/24 02:36:22;;;;;;;4.43;3.33;;;11.80;99.90;;;;;;5032152;28;20665;-71
2023/05/24 02:38:49;;;;;;;4.20;3.00;;;11.80;99.90;;;;;;5031424;28;20201;-71
2023/05/24 02:41:17;;;;;;;3.35;2.88;;;11.80;99.90;;;;;;5032204;28;20205;-71
2023/05/24 02:43:43;;;;;;;3.22;2.53;;;11.80;99.90;;;;;;5031812;28;20217;-71
2023/05/24 02:46:10;;;;;;;3.80;2.50;;;11.70;99.90;;;;;;5032346;28;20207;-71
2023/05/24 02:48:37;;;;;;;7.07;4.05;;;11.70;99.90;;;;;;5031457;28;20582;-71
2023/05/24 02:51:05;;;;;;;4.72;2.65;;;11.70;99.90;;;;;;5031719;28;20221;-71
2023/05/24 02:53:32;;;;;;;7.32;3.42;;;11.70;99.90;;;;;;5031939;28;20583;-71
2023/05/24 02:55:59;;;;;;;3.95;2.53;;;11.70;99.90;;;;;;5031736;28;20209;-71
2023/05/24 02:58:27;;;;;;;4.75;3.83;;;11.60;99.90;;;;;;5031364;28;20240;-71
2023/05/24 03:00:55;;;;;;;5.65;3.60;;;11.60;99.90;;;;;;5031383;28;20303;-72
2023/05/24 03:03:21;;;;;;;5.05;4.50;;;11.60;99.90;;;;;;5031732;28;20716;-71
2023/05/24 03:05:48;;;;;;;3.55;3.20;;;11.50;99.90;;;;;;5031364;28;20201;-71
2023/05/24 03:08:16;;;;;;;7.15;2.85;;;11.50;99.90;;;;;;5031363;28;20221;-71
2023/05/24 03:10:43;;;;;;;4.93;3.65;;;11.50;99.90;;;;;;5030850;28;20197;-71
2023/05/24 03:13:10;;;;;;;3.47;2.80;;;11.50;99.90;;;;;;5031648;28;20197;-71
2023/05/24 03:15:37;;;;;;;5.97;3.15;;;11.40;99.90;;;;;;5031305;28;20202;-71
2023/05/24 03:18:03;;;;;;;4.15;2.92;;;11.40;99.90;;;;;;5031083;28;20975;-71
2023/05/24 03:20:30;;;;;;;2.85;2.40;;;11.40;99.90;;;;;;5023644;28;20202;-71
2023/05/24 03:22:57;;;;;;;4.05;3.22;;;11.30;99.90;;;;;;5011500;28;20230;-71
2023/05/24 03:25:26;;;;;;;4.97;3.28;;;11.30;99.90;;;;;;5011046;28;20202;-71
2023/05/24 03:27:52;;;;;;;3.70;3.20;;;11.30;99.90;;;;;;5010689;28;20226;-72
2023/05/24 03:30:19;;;;;;;7.45;3.13;;;11.30;99.90;;;;;;5016504;28;20556;-71
2023/05/24 03:32:46;;;;;;;4.45;2.65;;;11.20;99.90;;;;;;5023232;28;20214;-71
2023/05/24 03:35:13;;;;;;;5.03;3.38;;;11.20;99.90;;;;;;5014085;28;20201;-70
2023/05/24 03:37:40;;;;;;;3.58;3.08;;;11.20;99.90;;;;;;5027958;28;20218;-70
2023/05/24 03:40:08;;;;;;;3.65;2.95;;;11.20;99.90;;;;;;5008750;28;20673;-71
2023/05/24 03:42:36;;;;;;;4.03;3.47;;;11.20;99.90;;;;;;5025237;28;20244;-71
2023/05/24 03:45:03;;;;;;;4.70;3.35;;;11.30;99.90;;;;;;5001394;28;20198;-70
2023/05/24 03:47:30;;;;;;;4.70;3.15;;;11.20;99.90;;;;;;5009763;28;20277;-70
2023/05/24 03:49:57;;;;;;;6.18;3.30;;;11.20;99.90;;;;;;5010291;28;20213;-70
2023/05/24 03:52:23;;;;;;;5.30;3.50;;;11.20;99.90;;;;;;5010347;28;20233;-70
2023/05/24 03:54:50;;;;;;;6.45;3.30;;;11.20;99.90;;;;;;5010478;28;20198;-70
2023/05/24 03:57:17;;;;;;;4.30;3.90;;;11.20;99.90;;;;;;5024486;28;20225;-70
2023/05/24 03:59:45;;;;;;;6.97;2.97;;;11.20;99.90;;;;;;5021342;28;20198;-70
2023/05/24 04:02:12;;;;;;;5.22;3.10;;;11.20;99.90;;;;;;5010983;28;20661;-70
2023/05/24 04:04:38;;;;;;;4.68;3.35;;;11.20;99.90;;;;;;5010723;28;20199;-70
2023/05/24 04:07:06;;;;;;;5.45;3.70;;;11.20;99.90;;;;;;5010378;28;20229;-74
2023/05/24 04:09:33;;;;;;;8.00;3.75;;;11.20;99.90;;;;;;5008715;28;20194;-71
2023/05/24 04:12:00;;;;;;;8.25;2.70;;;11.20;99.90;;;;;;5019317;28;20654;-71
2023/05/24 04:14:27;;;;;;;5.22;3.95;;;11.20;99.90;;;;;;5020017;28;20272;-71
2023/05/24 04:16:56;;;;;;;8.32;3.58;;;11.20;99.90;;;;;;5009321;28;20229;-72
2023/05/24 04:19:22;;;;;;;3.85;2.70;;;11.20;99.90;;;;;;5008020;28;20194;-72
2023/05/24 04:21:50;;;;;;;4.25;3.00;;;11.30;99.90;;;;;;5008425;28;20584;-72
2023/05/24 04:24:16;;;;;;;3.35;2.80;;;11.30;99.90;;;;;;5008832;28;20199;-71
2023/05/24 04:26:43;;;;;;;4.60;2.92;;;11.20;99.90;;;;;;5005811;28;20219;-71
2023/05/24 04:29:10;;;;;;;4.10;2.58;;;11.30;99.90;;;;;;5001176;28;20206;-71
2023/05/24 04:31:37;;;;;;;3.95;3.00;;;11.30;99.90;;;;;;5005513;28;20222;-73
2023/05/24 04:34:06;;;;;;;8.25;3.42;;;11.20;99.90;;;;;;5016440;28;20206;-71
2023/05/24 04:36:34;;;;;;;9.57;3.83;;;11.20;99.90;;;;;;5008758;28;20198;-70
2023/05/24 04:39:03;;;;;;;5.47;3.80;;;11.20;99.90;;;;;;5009368;28;20678;-72
2023/05/24 04:41:31;;;;;;;4.75;3.63;;;11.30;99.90;;;;;;5024776;28;20225;-73
2023/05/24 04:43:58;;;;;;;3.42;3.13;;;11.20;99.90;;;;;;5021024;28;20314;-72
2023/05/24 04:46:25;;;;;;;7.85;3.42;;;11.20;99.90;;;;;;5030101;28;20197;-72
2023/05/24 04:48:52;;;;;;;4.53;3.60;;;11.30;99.90;;;;;;5029493;28;20672;-73
2023/05/24 04:51:21;;;;;;;4.75;3.50;;;11.30;99.90;;;;;;5030264;28;20198;-71
2023/05/24 04:53:48;;;;;;;3.60;3.30;;;11.30;99.90;;;;;;5029842;28;20213;-70
2023/05/24 04:56:15;;;;;;;3.85;3.47;;;11.30;99.90;;;;;;5029938;28;20202;-70
2023/05/24 04:58:42;;;;;;;7.97;3.70;;;11.30;99.90;;;;;;5029451;28;20556;-71
2023/05/24 05:01:09;;;;;;;3.80;2.83;;;11.30;99.90;;;;;;5030042;28;20193;-72
2023/05/24 05:03:36;;;;;;;3.97;3.20;;;11.30;99.90;;;;;;5030120;28;20269;-72
2023/05/24 05:06:02;;;;;;;3.45;2.88;;;11.30;99.90;;;;;;5019188;28;20688;-73
2023/05/24 05:08:30;;;;;;;4.70;3.53;;;11.30;99.90;;;;;;5010622;28;20218;-71
2023/05/24 05:10:57;;;;;;;3.30;3.00;;;11.20;99.90;;;;;;5012570;28;20211;-74
2023/05/24 05:13:24;;;;;;;3.15;2.88;;;11.30;99.90;;;;;;5030127;28;20723;-75
2023/05/24 05:15:51;;;;;;;7.35;3.50;;;11.20;99.90;;;;;;5029687;28;20201;-71
2023/05/24 05:18:18;;;;;;;3.47;3.17;;;11.30;99.90;;;;;;5029737;28;20224;-70
2023/05/24 05:20:44;;;;;;;14.13;4.38;;;11.30;99.90;;;;;;5013056;28;20210;-69
2023/05/24 05:23:11;;;;;;;3.88;2.53;;;11.30;99.90;;;;;;5009934;28;20297;-70
2023/05/24 05:25:39;;;;;;;5.53;3.88;;;11.30;99.90;;;;;;5010085;28;20225;-69
2023/05/24 05:28:06;;;;;;;5.45;3.15;;;11.30;99.90;;;;;;5009255;28;20219;-69
2023/05/24 05:30:32;;;;;;;4.85;3.38;;;11.30;99.90;;;;;;5009632;28;20206;-70
2023/05/24 05:32:59;;;;;;;4.93;3.50;;;11.30;99.90;;;;;;5009662;28;20859;-70
2023/05/24 05:35:26;;;;;;;4.03;3.40;;;11.30;99.90;;;;;;5009946;28;20194;-69
2023/05/24 05:37:52;;;;;;;3.30;2.70;;;11.20;99.90;;;;;;5009488;28;20608;-69
2023/05/24 05:40:19;;;;;;;7.97;3.30;;;11.30;99.90;;;;;;5009743;28;20199;-70
2023/05/24 05:42:48;;;;;;;6.22;3.53;;;11.30;99.90;;;;;;5009614;28;20198;-69
2023/05/24 05:45:15;;;;;;;5.72;3.03;;;11.40;99.90;;;;;;5009940;28;20195;-70
2023/05/24 05:47:42;;;;;;;4.60;2.63;;;11.40;99.90;;;;;;5010284;28;20218;-70
2023/05/24 05:50:09;;;;;;;9.45;3.80;;;11.50;99.90;;;;;;5010142;28;20211;-69
2023/05/24 05:52:36;;;;;;;4.88;3.22;;;11.50;99.90;;;;;;5004340;28;20211;-70
2023/05/24 05:55:03;;;;;;;6.10;3.47;;;11.50;99.90;;;;;;5004100;28;20202;-70
2023/05/24 05:57:30;;;;;;;5.25;3.22;;;11.50;99.90;;;;;;5008272;28;20272;-69
2023/05/24 05:59:58;;;;;;;4.97;3.38;;;11.50;99.90;;;;;;5014034;28;20202;-70
2023/05/24 06:02:24;;;;;;;5.10;3.05;;;11.60;99.90;;;;;;5033019;28;20194;-69
2023/05/24 06:04:51;;;;;;;4.15;2.90;;;11.70;99.90;;;;;;5031844;28;20201;-69
2023/05/24 06:07:18;;;;;;;6.40;3.33;;;11.60;99.90;;;;;;5013028;28;20218;-70
2023/05/24 06:09:44;;;;;;;6.97;3.38;;;11.70;99.90;;;;;;5012728;28;20195;-69
2023/05/24 06:12:11;;;;;;;5.60;3.13;;;11.70;99.90;;;;;;5024500;28;20217;-70
2023/05/24 06:14:38;;;;;;;3.90;2.85;;;11.80;99.90;;;;;;5032641;28;20198;-69
2023/05/24 06:17:06;;;;;;;5.15;2.90;;;11.70;99.90;;;;;;5013430;28;20234;-70
2023/05/24 06:19:33;;;;;;;4.75;3.78;;;11.80;99.90;;;;;;5012442;28;20226;-70
2023/05/24 06:22:00;;;;;;;4.13;3.10;;;11.80;99.90;;;;;;5012473;28;20685;-70
2023/05/24 06:24:27;;;;;;;3.83;2.95;;;11.90;99.90;;;;;;5012723;28;20202;-70
2023/05/24 06:26:54;;;;;;;6.22;3.50;;;11.80;99.90;;;;;;5012258;28;20218;-70
2023/05/24 06:29:21;;;;;;;4.25;3.30;;;11.90;99.90;;;;;;5012114;28;20297;-70
2023/05/24 06:31:48;;;;;;;4.50;3.20;;;11.90;99.90;;;;;;5012416;28;20406;-70
2023/05/24 06:34:17;;;;;;;6.00;3.92;;;11.90;99.90;;;;;;5012627;28;20195;-69
2023/05/24 06:36:46;;;;;;;5.63;3.72;;;12.00;99.90;;;;;;5012688;28;20288;-69
2023/05/24 06:39:13;;;;;;;9.83;4.13;;;12.10;99.90;;;;;;5012142;28;20202;-69
2023/05/24 06:41:41;;;;;;;5.07;2.97;;;12.10;99.90;;;;;;5012284;28;20472;-70
2023/05/24 06:44:08;;;;;;;7.07;3.47;;;12.20;99.90;;;;;;5012028;28;20210;-70
2023/05/24 06:46:35;;;;;;;11.27;4.32;;;12.20;99.90;;;;;;5007513;28;20484;-70
2023/05/24 06:49:02;;;;;;;5.43;3.72;;;12.20;99.90;;;;;;5029932;28;20225;-70
2023/05/24 06:51:32;;;;;;;6.30;3.33;;;12.10;99.90;;;;;;5032051;28;20208;-69
2023/05/24 06:53:59;;;;;;;4.97;3.30;;;12.20;99.90;;;;;;5023705;28;20316;-69
2023/05/24 06:56:27;;;;;;;4.68;3.17;;;12.30;99.90;;;;;;5031938;28;20221;-70
2023/05/24 06:58:55;;;;;;;3.40;3.03;;;12.40;99.90;;;;;;5022949;28;20286;-70
2023/05/24 07:01:22;;;;;;;4.57;3.30;;;12.40;99.90;;;;;;5018646;28;20301;-69
2023/05/24 07:03:48;;;;;;;5.80;3.47;;;12.50;99.90;;;;;;5012016;28;20230;-69
2023/05/24 07:06:16;;;;;;;2.97;2.78;;;12.50;99.90;;;;;;5019862;28;20203;-70
2023/05/24 07:08:44;;;;;;;7.17;3.63;;;12.60;99.90;;;;;;5027121;28;20197;-70
2023/05/24 07:11:10;;;;;;;6.87;4.00;;;12.50;99.90;;;;;;5028441;28;20468;-70
2023/05/24 07:13:37;;;;;;;6.18;3.72;;;12.60;99.90;;;;;;5011748;28;20489;-70
2023/05/24 07:16:04;;;;;;;6.20;4.10;;;12.50;99.90;;;;;;5021763;28;20210;-69
2023/05/24 07:18:31;;;;;;;5.30;3.15;;;12.50;99.90;;;;;;5031044;28;20487;-69
2023/05/24 07:20:58;;;;;;;4.05;3.00;;;12.50;99.90;;;;;;5023000;28;20228;-69
2023/05/24 07:23:25;;;;;;;5.65;3.70;;;12.40;99.90;;;;;;5026740;28;20282;-70
2023/05/24 07:25:53;;;;;;;15.40;3.50;;;12.40;99.90;;;;;;5011748;28;20206;-69
2023/05/24 07:28:20;;;;;;;5.45;3.45;;;12.50;99.90;;;;;;5026714;28;20717;-69
2023/05/24 07:30:47;;;;;;;7.20;3.83;;;12.40;99.90;;;;;;5019370;28;20216;-70
2023/05/24 07:33:14;;;;;;;5.15;3.35;;;12.30;99.90;;;;;;5014622;28;20722;-70
2023/05/24 07:35:41;;;;;;;5.45;2.88;;;12.20;99.90;;;;;;5016013;28;20710;-70
2023/05/24 07:38:08;;;;;;;5.83;3.13;;;12.20;99.90;;;;;;5029809;28;20260;-70
2023/05/24 07:40:35;;;;;;;7.28;2.97;;;12.10;99.90;;;;;;5030727;28;20963;-69
2023/05/24 07:43:03;;;;;;;7.25;3.90;;;12.10;99.90;;;;;;5017059;28;20206;-69
2023/05/24 07:45:30;;;;;;;4.72;3.60;;;12.10;99.90;;;;;;5010230;28;20202;-70
2023/05/24 07:47:56;;;;;;;10.65;3.45;;;12.20;99.90;;;;;;5010715;28;20234;-70
2023/05/24 07:50:23;;;;;;;5.25;3.40;;;12.20;99.90;;;;;;5023178;28;20204;-69
2023/05/24 07:52:50;;;;;;;11.45;3.90;;;12.20;99.90;;;;;;5022548;28;20234;-70
2023/05/24 07:55:17;;;;;;;5.85;3.58;;;12.30;99.90;;;;;;5014598;28;20205;-70
2023/05/24 07:57:43;;;;;;;6.82;2.80;;;12.20;99.90;;;;;;5015333;28;20222;-70
2023/05/24 08:00:13;;;;;;;7.05;3.97;;;12.30;99.90;;;;;;5029583;28;20689;-70
2023/05/24 08:02:41;;;;;;;6.73;4.23;;;12.30;99.90;;;;;;5024142;28;20229;-70
2023/05/24 08:05:09;;;;;;;7.93;3.77;;;12.40;99.90;;;;;;5018439;28;20472;-69
2023/05/24 08:07:36;;;;;;;6.10;3.53;;;12.60;99.90;;;;;;5016807;28;20508;-70
2023/05/24 08:10:03;;;;;;;7.90;3.77;;;12.70;99.90;;;;;;5029893;28;20469;-70
2023/05/24 08:12:30;;;;;;;5.43;3.60;;;12.80;99.90;;;;;;5026445;28;20509;-69
2023/05/24 08:14:57;;;;;;;4.63;3.63;;;13.00;99.90;;;;;;5026398;28;20744;-70
2023/05/24 08:17:27;;;;;;;5.47;3.33;;;13.00;99.90;;;;;;5030256;28;20537;-69
2023/05/24 08:19:54;;;;;;;7.57;4.10;;;13.10;99.90;;;;;;5013038;28;20493;-69
2023/05/24 08:22:21;;;;;;;6.23;4.33;;;13.10;99.90;;;;;;5010495;28;20469;-70
2023/05/24 08:24:48;;;;;;;7.70;3.87;;;13.10;99.90;;;;;;5026360;28;20468;-69
2023/05/24 08:27:15;;;;;;;5.63;3.60;;;13.20;99.90;;;;;;5021466;28;20538;-69
2023/05/24 08:29:43;;;;;;;6.50;3.87;;;13.00;99.90;;;;;;5010887;28;20617;-69
2023/05/24 08:32:10;;;;;;;6.60;3.70;;;13.10;99.90;;;;;;5009027;28;20465;-69
2023/05/24 08:34:39;;;;;;;5.30;3.97;;;13.10;99.90;;;;;;5018848;28;20481;-69
2023/05/24 08:37:06;;;;;;;6.20;3.80;;;13.10;99.90;;;;;;5020070;28;20490;-69
2023/05/24 08:39:32;;;;;;;7.03;3.40;;;13.00;99.90;;;;;;5026401;28;20472;-69
2023/05/24 08:41:59;;;;;;;7.40;3.83;;;12.80;99.90;;;;;;5020637;28;20472;-69
2023/05/24 08:44:28;;;;;;;6.10;3.77;;;12.80;99.90;;;;;;5014974;28;20463;-69
2023/05/24 08:46:56;;;;;;;6.55;3.88;;;12.70;99.90;;;;;;5021727;28;20481;-69
2023/05/24 08:49:22;;;;;;;5.07;3.80;;;12.70;99.90;;;;;;5009735;28;20198;-69
2023/05/24 08:51:52;;;;;;;9.13;3.70;;;12.70;99.90;;;;;;5010388;28;20202;-69
2023/05/24 08:54:20;;;;;;;4.93;3.47;;;12.70;99.90;;;;;;5020998;28;21013;-70
2023/05/24 08:56:47;;;;;;;3.77;3.30;;;12.60;99.90;;;;;;5022779;28;20485;-69
2023/05/24 08:59:14;;;;;;;4.35;3.65;;;12.70;99.90;;;;;;5028470;28;20464;-70
2023/05/24 09:01:41;;;;;;;5.07;3.53;;;12.70;99.90;;;;;;5023904;28;20198;-70
2023/05/24 09:04:09;;;;;;;4.20;3.20;;;12.70;99.90;;;;;;5027901;28;20460;-70
2023/05/24 09:06:36;;;;;;;4.27;3.30;;;12.70;99.90;;;;;;5029580;28;20272;-69
2023/05/24 09:09:08;;;;;;;4.47;3.33;;;12.80;99.90;;;;;;5028322;28;20464;-70
2023/05/24 09:11:35;;;;;;;5.20;3.40;;;12.90;99.90;;;;;;5015760;28;20468;-69
2023/05/24 09:14:02;;;;;;;4.70;3.23;;;13.10;99.90;;;;;;5010436;28;20480;-69
2023/05/24 09:16:29;;;;;;;4.90;3.70;;;13.30;99.90;;;;;;5029716;28;20465;-70
2023/05/24 09:18:56;;;;;;;6.90;3.63;;;13.40;99.90;;;;;;5028761;28;20465;-70
2023/05/24 09:21:23;;;;;;;7.03;3.63;;;13.50;99.90;;;;;;5026059;28;20953;-70
2023/05/24 09:23:51;;;;;;;5.57;3.03;;;13.70;99.90;;;;;;5012059;28;20457;-70
2023/05/24 09:26:20;;;;;;;9.43;5.50;;;13.70;99.90;;;;;;5013193;28;21113;-69
2023/05/24 09:28:49;;;;;;;4.90;3.40;;;13.60;99.90;;;;;;5028380;28;20472;-70
2023/05/24 09:31:17;;;;;;;4.23;3.23;;;13.60;99.90;;;;;;5032643;28;20463;-70
2023/05/24 09:33:44;;;;;;;6.17;3.60;;;13.50;99.90;;;;;;5033193;28;20487;-69
2023/05/24 09:36:11;;;;;;;6.83;3.50;;;13.40;99.90;;;;;;5032963;28;20460;-69
2023/05/24 09:38:37;;;;;;;5.37;2.73;;;13.40;99.90;;;;;;5032808;28;20480;-69
2023/05/24 09:41:06;;;;;;;4.33;3.30;;;13.30;99.90;;;;;;5023311;28;20537;-69
2023/05/24 09:43:46;;;;;;;4.40;3.70;;;13.30;99.90;;;;;;5004767;28;20462;-70
2023/05/24 09:46:17;;;;;;;7.87;4.47;;;13.20;99.90;;;;;;5016813;28;20460;-70
2023/05/24 09:48:55;;;;;;;6.80;4.40;;;13.20;99.90;;;;;;5023706;28;20460;-69
2023/05/24 09:51:22;;;;;;;5.37;3.00;;;13.20;99.90;;;;;;5029427;28;20467;-69
2023/05/24 09:53:51;;;;;;;4.13;3.10;;;13.20;99.90;;;;;;5021111;28;20488;-70
2023/05/24 09:56:18;;;;;;;6.23;3.40;;;13.10;99.90;;;;;;5028199;28;20548;-70
2023/05/24 09:58:46;;;;;;;3.43;3.10;;;13.10;99.90;;;;;;5032584;28;20472;-69
2023/05/24 10:01:13;;;;;;;6.33;3.47;;;13.10;99.90;;;;;;5024461;28;20464;-69
2023/05/24 10:03:52;;;;;;;6.20;3.47;;;13.10;99.90;;;;;;5026939;28;20538;-70
2023/05/24 10:06:19;;;;;;;4.17;3.77;;;13.20;99.90;;;;;;5020298;28;20471;-69
2023/05/24 10:08:48;;;;;;;4.03;3.23;;;13.30;99.90;;;;;;5019322;28;20959;-70
2023/05/24 10:11:14;;;;;;;6.90;3.70;;;13.30;99.90;;;;;;5029960;28;20460;-69
2023/05/24 10:13:42;;;;;;;7.70;3.30;;;13.40;99.90;;;;;;5021174;28;21045;-70
2023/05/24 10:16:10;;;;;;;4.30;3.30;;;13.40;99.90;;;;;;5020985;28;20464;-69
2023/05/24 10:18:37;;;;;;;6.73;3.70;;;13.40;99.90;;;;;;5011683;28;20485;-70
2023/05/24 10:21:07;;;;;;;6.50;3.03;;;13.40;99.90;;;;;;5030321;28;20831;-69
2023/05/24 10:23:36;;;;;;;5.00;3.20;;;13.50;99.90;;;;;;5021499;28;20741;-69
2023/05/24 10:26:06;;;;;;;5.10;3.83;;;13.60;99.90;;;;;;5021170;28;20833;-69
2023/05/24 10:28:35;;;;;;;5.03;3.53;;;13.60;99.90;;;;;;5012355;28;20520;-69
2023/05/24 10:31:10;;;;;;;6.87;3.80;;;13.50;99.90;;;;;;5020464;28;20503;-69
2023/05/24 10:33:39;;;;;;;8.73;3.10;;;13.30;99.90;;;;;;5026915;28;20481;-69
2023/05/24 10:36:09;;;;;;;5.47;3.83;;;13.30;99.90;;;;;;5011396;28;20461;-69
2023/05/24 10:38:39;;;;;;;5.90;3.47;;;13.20;99.90;;;;;;5012329;28;20576;-69
2023/05/24 10:41:06;;;;;;;7.27;3.60;;;13.20;99.90;;;;;;5012311;28;20509;-69
2023/05/24 10:43:33;;;;;;;5.33;3.50;;;13.20;99.90;;;;;;5012495;28;20458;-69
2023/05/24 10:46:03;;;;;;;3.60;3.30;;;13.10;99.90;;;;;;5020836;28;21030;-69
2023/05/24 10:48:39;;;;;;;5.50;2.80;;;13.00;99.90;;;;;;5031985;28;20480;-69
2023/05/24 10:51:29;;;;;;;3.20;3.00;;;12.90;99.90;;;;;;5032289;28;20500;-69
2023/05/24 10:53:57;;;;;;;8.80;3.57;;;12.90;99.90;;;;;;5032334;28;20483;-69
2023/05/24 10:56:26;;;;;;;4.77;3.43;;;12.90;99.90;;;;;;5031838;28;20464;-69
2023/05/24 10:59:01;;;;;;;4.17;3.10;;;12.80;99.90;;;;;;5031617;28;20970;-69
2023/05/24 11:01:29;;;;;;;7.47;3.58;;;12.80;99.90;;;;;;5031901;28;20499;-69
2023/05/24 11:04:08;;;;;;;6.88;3.70;;;12.70;99.90;;;;;;5031950;28;20221;-69
2023/05/24 11:06:48;;;;;;;12.37;3.17;;;12.80;99.90;;;;;;5009550;28;20707;-70
2023/05/24 11:09:15;;;;;;;3.13;2.63;;;12.80;99.90;;;;;;5031038;28;20460;-70
2023/05/24 11:11:45;;;;;;;7.53;3.30;;;12.80;99.90;;;;;;5026317;28;20468;-70
2023/05/24 11:14:12;;;;;;;3.47;3.00;;;12.80;99.90;;;;;;5013069;28;20485;-70
2023/05/24 11:16:39;;;;;;;9.37;4.27;;;12.90;99.90;;;;;;5031633;28;20480;-70
2023/05/24 11:19:16;;;;;;;6.97;3.50;;;12.90;99.90;;;;;;5030358;28;20468;-70
2023/05/24 11:21:45;;;;;;;6.07;3.70;;;13.00;99.90;;;;;;5017290;28;20464;-70
2023/05/24 11:24:12;;;;;;;7.60;3.50;;;13.10;99.90;;;;;;5031229;28;20460;-70
2023/05/24 11:26:39;;;;;;;4.77;3.70;;;13.00;99.90;;;;;;5031335;28;20487;-70
2023/05/24 11:29:07;;;;;;;5.33;3.30;;;13.10;99.90;;;;;;5013827;28;20457;-70
2023/05/24 11:31:38;;;;;;;4.05;3.55;;;13.10;99.90;;;;;;5015810;28;20948;-70
2023/05/24 11:34:05;;;;;;;6.20;3.27;;;13.30;99.90;;;;;;5022822;28;20222;-70
2023/05/24 11:36:35;;;;;;;5.20;3.60;;;13.40;99.90;;;;;;5011580;28;20468;-70
2023/05/24 11:39:05;;;;;;;4.20;3.23;;;13.60;99.90;;;;;;5019330;28;20476;-70
2023/05/24 11:41:35;;;;;;;4.67;2.90;;;13.80;99.90;;;;;;5015731;28;20460;-70
2023/05/24 11:44:02;;;;;;;5.83;3.40;;;14.00;99.90;;;;;;5015136;28;20536;-70
2023/05/24 11:46:29;;;;;;;8.20;3.97;;;14.30;99.90;;;;;;5022160;28;20467;-70
2023/05/24 11:48:57;;;;;;;7.13;3.50;;;14.60;99.90;;;;;;5023748;28;20484;-70
2023/05/24 11:51:27;;;;;;;4.33;3.33;;;14.80;99.90;;;;;;5030061;28;20526;-70
2023/05/24 11:53:56;;;;;;;8.33;3.53;;;14.90;99.90;;;;;;5016074;28;20509;-70
2023/05/24 11:56:23;;;;;;;4.47;4.07;;;14.90;99.90;;;;;;5029552;28;20874;-70
2023/05/24 11:58:50;;;;;;;4.00;3.17;;;15.10;99.90;;;;;;5024475;28;20468;-70
2023/05/24 12:01:24;;;;;;;3.90;3.00;;;15.30;99.90;;;;;;5012508;28;20457;-70
2023/05/24 12:03:53;;;;;;;4.80;2.87;;;15.80;99.90;;;;;;5016512;28;20529;-70
2023/05/24 12:06:20;;;;;;;6.83;3.30;;;16.70;99.90;;;;;;5020717;28;20563;-70
2023/05/24 12:08:47;;;;;;;5.70;3.07;;;17.70;99.90;;;;;;5024994;28;20480;-70
2023/05/24 12:11:15;;;;;;;9.97;3.97;;;18.30;99.90;;;;;;5010656;28;20488;-70
2023/05/24 12:13:42;;;;;;;6.17;3.13;;;18.70;99.90;;;;;;5010901;28;20461;-70
2023/05/24 12:16:12;;;;;;;8.80;4.20;;;18.90;99.90;;;;;;5019201;28;20472;-70
2023/05/24 12:18:39;;;;;;;4.90;3.53;;;19.10;99.90;;;;;;5029995;28;20476;-70
2023/05/24 12:21:09;;;;;;;6.50;3.40;;;19.30;99.90;;;;;;5030486;28;20460;-70
2023/05/24 12:23:36;;;;;;;5.33;3.90;;;19.40;99.90;;;;;;5015563;28;20496;-70
2023/05/24 12:26:04;;;;;;;5.60;4.13;;;19.60;99.90;;;;;;5022571;28;20460;-70
2023/05/24 12:28:37;;;;;;;5.53;3.03;;;19.40;99.90;;;;;;5018230;28;20485;-70
2023/05/24 12:31:05;;;;;;;4.37;2.57;;;19.50;99.30;;;;;;5018318;28;20500;-70
2023/05/24 12:33:33;;;;;;;6.63;2.87;;;19.20;97.50;;;;;;5021954;28;20994;-70
2023/05/24 12:36:00;;;;;;;3.50;2.80;;;19.20;96.70;;;;;;5015103;28;20477;-70
2023/05/24 12:38:27;;;;;;;2.60;2.37;;;19.50;99.90;;;;;;5020854;28;20860;-70
2023/05/24 12:40:54;;;;;;;5.27;3.00;;;19.70;99.00;;;;;;5015975;28;20465;-70
2023/05/24 12:43:22;;;;;;;4.60;3.20;;;19.70;96.30;;;;;;5028494;28;20562;-70
2023/05/24 12:45:50;;;;;;;4.67;3.30;;;19.50;96.00;;;;;;5030590;28;20572;-70
2023/05/24 12:48:17;;;;;;;4.73;2.67;;;19.30;97.00;;;;;;5028477;28;20916;-70
2023/05/24 12:50:43;;;;;;;3.60;2.60;;;19.40;97.70;;;;;;5015234;28;20522;-68